createdAt,value
2022-11-08T09:12:57.610Z,6.90
2022-11-08T09:16:01.788Z,4.25
2022-11-08T09:19:03.553Z,3.92
2022-11-08T09:22:05.163Z,3.58
2022-11-08T09:25:07.035Z,3.65
2022-11-08T09:28:09.310Z,3.38
2022-11-08T09:31:12.309Z,3.53
2022-11-08T09:34:16.287Z,3.22
2022-11-08T09:37:22.185Z,3.72
2022-11-08T09:40:30.582Z,4.72
2022-11-08T09:43:43.769Z,4.25
2022-11-08T09:47:34.294Z,3.90
2022-11-08T09:50:43.433Z,3.80
2022-11-08T09:53:52.988Z,4.65
2022-11-08T09:56:55.626Z,3.55
2022-11-08T10:00:04.024Z,2.53
2022-11-08T10:03:13.184Z,3.58
2022-11-08T10:06:36.570Z,3.03
2022-11-08T10:09:38.069Z,3.67
2022-11-08T10:13:00.647Z,3.55
2022-11-08T10:16:27.250Z,4.85
2022-11-08T10:19:47.817Z,3.72
2022-11-08T10:23:04.395Z,3.75
2022-11-08T10:26:08.196Z,2.22
2022-11-08T10:29:15.561Z,5.00
2022-11-08T10:32:20.584Z,3.95
2022-11-08T10:35:34.758Z,3.15
2022-11-08T10:38:47.394Z,3.85
2022-11-08T10:42:34.151Z,3.70
2022-11-08T10:45:35.783Z,3.97
2022-11-08T10:48:40.121Z,5.05
2022-11-08T10:51:44.200Z,3.55
2022-11-08T10:54:51.528Z,3.38
2022-11-08T10:57:53.513Z,4.38
2022-11-08T11:01:06.125Z,3.35
2022-11-08T11:04:26.588Z,2.53
2022-11-08T11:07:32.844Z,3.72
2022-11-08T11:10:36.165Z,4.35
2022-11-08T11:13:37.720Z,1.95
2022-11-08T11:16:48.681Z,3.42
2022-11-08T11:19:55.701Z,3.30
2022-11-08T11:22:59.052Z,3.58
2022-11-08T11:26:00.682Z,4.18
2022-11-08T11:29:05.108Z,2.38
2022-11-08T11:32:25.417Z,1.83
2022-11-08T11:35:35.702Z,3.97
2022-11-08T11:38:51.165Z,5.40
2022-11-08T11:42:12.619Z,6.45
2022-11-08T11:46:02.416Z,5.25
2022-11-08T11:49:13.514Z,3.58
2022-11-08T11:52:18.261Z,6.15
2022-11-08T11:55:27.029Z,2.58
2022-11-08T11:59:02.311Z,4.47
2022-11-08T12:02:31.837Z,3.17
2022-11-08T12:12:57.637Z,6.22
2022-11-08T12:16:24.628Z,6.57
2022-11-08T12:20:27.321Z,4.88
2022-11-08T12:24:06.430Z,3.13
2022-11-08T12:27:33.839Z,4.18
2022-11-08T12:30:44.730Z,4.53
2022-11-08T12:33:46.204Z,2.47
2022-11-08T12:37:19.617Z,9.23
2022-11-08T12:40:30.670Z,3.83
2022-11-08T12:43:50.936Z,7.53
2022-11-08T12:47:15.756Z,12.23
2022-11-08T12:50:44.685Z,19.13
2022-11-08T12:53:58.373Z,26.52
2022-11-08T12:57:10.062Z,25.92
2022-11-08T13:00:18.140Z,22.40
2022-11-08T13:03:47.113Z,22.15
2022-11-08T13:07:16.238Z,24.77
2022-11-08T13:10:56.647Z,21.35
2022-11-08T13:14:00.323Z,19.75
2022-11-08T13:17:24.796Z,24.30
2022-11-08T13:20:46.865Z,18.73
2022-11-08T13:23:48.378Z,22.63
2022-11-08T13:26:50.164Z,16.30
2022-11-08T13:29:53.199Z,23.83
2022-11-08T13:33:36.235Z,15.70
2022-11-08T13:36:59.672Z,19.63
2022-11-08T13:40:13.160Z,15.13
2022-11-08T13:43:24.743Z,19.45
2022-11-08T13:46:26.200Z,16.65
2022-11-08T13:49:27.765Z,14.82
2022-11-08T13:53:04.725Z,14.48
2022-11-08T13:56:06.288Z,12.75
2022-11-08T13:59:43.067Z,13.95
2022-11-08T14:02:44.652Z,16.00
2022-11-08T14:05:48.347Z,13.02
2022-11-08T14:09:09.190Z,13.48
2022-11-08T14:12:19.940Z,11.45
2022-11-08T14:15:46.606Z,12.93
2022-11-08T14:18:48.557Z,13.50
2022-11-08T14:21:56.461Z,9.82
2022-11-08T14:25:50.538Z,11.73
2022-11-08T14:28:53.265Z,12.65
2022-11-08T14:32:25.931Z,10.02
2022-11-08T14:35:27.432Z,17.35
2022-11-08T14:38:31.278Z,13.40
2022-11-08T14:41:33.657Z,12.30
2022-11-08T14:44:35.209Z,9.48
2022-11-08T14:47:37.200Z,12.30
2022-11-08T14:50:38.717Z,10.25
2022-11-08T14:53:49.129Z,11.85
2022-11-08T14:56:50.981Z,9.55
2022-11-08T14:59:56.360Z,11.55
2022-11-08T15:03:05.382Z,14.23
2022-11-08T15:06:13.604Z,12.07
2022-11-08T15:09:27.949Z,11.23
2022-11-08T15:12:29.553Z,10.82
2022-11-08T15:15:33.640Z,14.25
2022-11-08T15:18:40.863Z,11.02
2022-11-08T15:21:49.001Z,8.48
2022-11-08T15:25:23.074Z,11.32
2022-11-08T15:28:30.070Z,10.25
2022-11-08T15:31:36.072Z,8.75
2022-11-08T15:34:40.811Z,11.45
2022-11-08T15:37:42.773Z,10.35
2022-11-08T15:40:50.601Z,13.15
2022-11-08T15:43:55.052Z,14.00
2022-11-08T15:50:29.632Z,11.93
2022-11-08T15:53:31.134Z,8.15
2022-11-08T15:56:33.143Z,8.25
2022-11-08T15:59:36.510Z,8.95
2022-11-08T16:02:38.018Z,7.68
2022-11-08T16:05:39.512Z,9.77
2022-11-08T16:08:41.427Z,8.88
2022-11-08T16:11:45.284Z,9.00
2022-11-08T16:14:46.810Z,8.50
2022-11-08T16:17:48.490Z,7.57
2022-11-08T16:20:50.442Z,8.88
2022-11-08T16:23:51.965Z,11.57
2022-11-08T16:26:53.551Z,8.35
2022-11-08T16:29:55.108Z,9.50
2022-11-08T16:32:57.149Z,8.18
2022-11-08T16:36:01.376Z,6.78
2022-11-08T16:39:03.770Z,6.18
2022-11-08T16:42:07.654Z,9.50
2022-11-08T16:45:10.002Z,7.93
2022-11-08T16:48:24.776Z,7.85
2022-11-08T16:51:26.516Z,7.32
2022-11-08T16:54:31.255Z,6.20
2022-11-08T16:57:35.211Z,7.15
2022-11-08T17:00:39.280Z,9.52
2022-11-08T17:03:40.798Z,6.93
2022-11-08T17:06:42.406Z,8.73
2022-11-08T17:09:44.021Z,5.55
2022-11-08T17:12:46.097Z,6.15
2022-11-08T17:15:49.149Z,6.10
2022-11-08T17:18:53.050Z,11.55
2022-11-08T17:21:54.887Z,8.73
2022-11-08T17:24:56.447Z,8.75
2022-11-08T17:27:58.075Z,7.85
2022-11-08T17:31:13.852Z,8.80
2022-11-08T17:34:15.715Z,7.32
2022-11-08T17:37:17.263Z,9.05
2022-11-08T17:40:18.857Z,6.65
2022-11-08T17:43:20.788Z,9.13
2022-11-08T17:46:22.420Z,6.93
2022-11-08T17:49:23.991Z,5.10
2022-11-08T17:52:25.518Z,6.75
2022-11-08T17:55:26.996Z,6.47
2022-11-08T17:58:28.908Z,9.23
2022-11-08T18:01:31.484Z,6.35
2022-11-08T18:04:33.250Z,4.72
2022-11-08T18:07:35.008Z,5.95
2022-11-08T18:10:36.558Z,7.43
2022-11-08T18:13:38.260Z,7.25
2022-11-08T18:16:39.733Z,8.60
2022-11-08T18:19:41.299Z,4.70
2022-11-08T18:22:42.861Z,7.43
2022-11-08T18:25:48.086Z,6.25
2022-11-08T18:28:49.595Z,8.80
2022-11-08T18:31:51.131Z,6.20
2022-11-08T18:34:52.782Z,8.98
2022-11-08T18:37:55.283Z,5.72
2022-11-08T18:40:56.818Z,5.28
2022-11-08T18:44:00.098Z,6.40
2022-11-08T18:47:02.986Z,5.88
2022-11-08T18:50:05.479Z,6.57
2022-11-08T18:53:08.560Z,5.47
2022-11-08T18:56:11.650Z,4.95
2022-11-08T18:59:13.425Z,5.93
2022-11-08T19:02:15.035Z,5.25
2022-11-08T19:05:16.785Z,5.18
2022-11-08T19:08:20.403Z,5.70
2022-11-08T19:11:22.898Z,4.43
2022-11-08T19:14:24.553Z,5.07
2022-11-08T19:17:26.186Z,4.38
2022-11-08T19:20:27.737Z,5.35
2022-11-08T19:23:30.140Z,6.35
2022-11-08T19:26:31.688Z,6.63
2022-11-08T19:29:33.174Z,5.85
2022-11-08T19:32:34.700Z,7.45
2022-11-08T19:35:37.270Z,6.10
2022-11-08T19:38:39.703Z,4.22
2022-11-08T19:41:41.634Z,4.45
2022-11-08T19:44:43.185Z,6.55
2022-11-08T19:47:47.304Z,4.72
2022-11-08T19:50:50.551Z,5.95
2022-11-08T19:53:56.958Z,4.68
2022-11-08T19:57:06.439Z,4.47
2022-11-08T20:00:10.397Z,4.15
2022-11-08T20:03:14.709Z,4.82
2022-11-08T20:06:19.203Z,7.82
2022-11-08T20:09:21.334Z,5.13
2022-11-08T20:12:25.149Z,5.53
2022-11-08T20:15:26.772Z,4.57
2022-11-08T20:18:28.290Z,4.03
2022-11-08T20:21:29.900Z,4.25
2022-11-08T20:24:31.732Z,4.65
2022-11-08T20:27:33.229Z,3.83
2022-11-08T20:30:35.276Z,4.90
2022-11-08T20:33:38.233Z,4.22
2022-11-08T20:36:40.987Z,4.93
2022-11-08T20:39:42.587Z,5.60
2022-11-08T20:42:44.164Z,4.10
2022-11-08T20:45:47.289Z,5.00
2022-11-08T20:48:52.063Z,4.18
2022-11-08T20:51:53.659Z,5.38
2022-11-08T20:54:55.547Z,4.55
2022-11-08T20:57:57.661Z,3.75
2022-11-08T21:01:00.583Z,3.35
2022-11-08T21:04:02.263Z,2.83
2022-11-08T21:08:01.427Z,4.95
2022-11-08T21:10:42.072Z,3.20
2022-11-08T21:13:46.470Z,3.38
2022-11-08T21:17:19.722Z,3.00
2022-11-08T21:20:10.153Z,2.95
2022-11-08T21:23:11.689Z,3.35
2022-11-08T21:26:14.973Z,3.90
2022-11-08T21:29:16.480Z,3.50
2022-11-08T21:32:18.042Z,3.85
2022-11-08T21:35:19.603Z,3.45
2022-11-08T21:38:22.104Z,3.53
2022-11-08T21:41:23.649Z,3.25
2022-11-08T21:44:25.164Z,3.38
2022-11-08T21:47:26.692Z,3.05
2022-11-08T21:50:28.261Z,4.53
2022-11-08T21:53:29.758Z,3.95
2022-11-08T21:56:35.023Z,3.15
2022-11-08T21:59:36.933Z,2.27
2022-11-08T22:02:40.385Z,3.40
2022-11-08T22:05:43.360Z,3.25
2022-11-08T22:08:44.935Z,3.13
2022-11-08T22:11:46.522Z,4.07
2022-11-08T22:14:49.371Z,2.65
2022-11-08T22:18:14.293Z,2.95
2022-11-08T22:21:30.679Z,3.22
2022-11-08T22:24:32.256Z,3.35
2022-11-08T22:27:33.818Z,2.95
2022-11-08T22:30:35.319Z,3.13
2022-11-08T22:33:36.892Z,3.22
2022-11-08T22:36:44.533Z,3.60
2022-11-08T22:39:47.054Z,3.28
2022-11-08T22:42:48.582Z,3.53
2022-11-08T22:45:50.076Z,2.05
2022-11-08T22:48:51.682Z,2.55
2022-11-08T22:51:53.280Z,3.35
2022-11-08T22:54:55.845Z,2.42
2022-11-08T22:57:57.368Z,5.20
2022-11-08T23:00:58.922Z,3.42
2022-11-08T23:04:00.697Z,2.40
2022-11-08T23:07:02.230Z,3.55
2022-11-08T23:10:04.171Z,2.33
2022-11-08T23:13:24.335Z,3.83
2022-11-08T23:16:31.817Z,3.30
2022-11-08T23:19:52.104Z,2.67
2022-11-08T23:23:12.006Z,2.72
2022-11-08T23:26:13.609Z,2.40
2022-11-08T23:29:34.817Z,2.42
2022-11-08T23:32:36.553Z,3.33
2022-11-08T23:35:38.110Z,1.92
2022-11-08T23:38:41.241Z,1.95
2022-11-08T23:42:01.245Z,3.97
2022-11-08T23:45:02.802Z,2.78
2022-11-08T23:48:04.713Z,2.33
2022-11-08T23:51:07.309Z,4.32
2022-11-08T23:54:08.861Z,2.45
2022-11-08T23:57:10.492Z,2.55
